createdAt,value
2023-01-15T00:00:12.089Z,2.20
2023-01-15T00:02:39.418Z,2.20
2023-01-15T00:05:07.050Z,2.20
2023-01-15T00:07:34.167Z,2.30
2023-01-15T00:10:01.339Z,2.30
2023-01-15T00:12:30.710Z,2.30
2023-01-15T00:14:59.304Z,2.40
2023-01-15T00:17:27.152Z,2.40
2023-01-15T00:19:54.598Z,2.40
2023-01-15T00:22:21.862Z,2.30
2023-01-15T00:25:07.949Z,2.40
2023-01-15T00:27:41.877Z,2.40
2023-01-15T00:30:14.668Z,2.40
2023-01-15T00:32:43.489Z,2.40
2023-01-15T00:35:19.360Z,2.40
2023-01-15T00:37:46.661Z,2.50
2023-01-15T00:40:15.793Z,2.60
2023-01-15T00:42:45.049Z,2.60
2023-01-15T00:45:22.698Z,2.60
2023-01-15T00:47:50.992Z,2.60
2023-01-15T00:50:18.776Z,2.70
2023-01-15T00:52:46.213Z,2.80
2023-01-15T00:55:13.937Z,2.80
2023-01-15T00:57:41.748Z,2.80
2023-01-15T01:00:12.758Z,2.80
2023-01-15T01:02:41.160Z,2.90
2023-01-15T01:05:08.853Z,2.90
2023-01-15T01:07:36.072Z,3.00
2023-01-15T01:10:03.253Z,3.10
2023-01-15T01:12:30.450Z,3.10
2023-01-15T01:14:57.734Z,3.30
2023-01-15T01:17:24.878Z,3.20
2023-01-15T01:19:54.723Z,3.30
2023-01-15T01:22:21.854Z,3.40
2023-01-15T01:24:48.979Z,3.40
2023-01-15T01:27:18.776Z,3.40
2023-01-15T01:29:46.121Z,3.50
2023-01-15T01:32:13.867Z,3.50
2023-01-15T01:34:41.250Z,3.50
2023-01-15T01:37:08.486Z,3.50
2023-01-15T01:39:35.604Z,3.50
2023-01-15T01:42:02.703Z,3.50
2023-01-15T01:44:32.577Z,3.50
2023-01-15T01:47:07.091Z,3.50
2023-01-15T01:49:35.418Z,3.40
2023-01-15T01:52:09.031Z,3.40
2023-01-15T01:54:38.500Z,3.30
2023-01-15T01:57:07.360Z,3.30
2023-01-15T01:59:35.283Z,3.30
2023-01-15T02:02:02.664Z,3.20
2023-01-15T02:04:30.900Z,3.20
2023-01-15T02:07:01.001Z,3.10
2023-01-15T02:09:28.241Z,3.10
2023-01-15T02:12:01.573Z,3.10
2023-01-15T02:14:42.363Z,3.10
2023-01-15T02:17:18.818Z,3.10
2023-01-15T02:20:13.259Z,3.00
2023-01-15T02:22:49.532Z,3.00
2023-01-15T02:25:50.397Z,3.00
2023-01-15T02:28:25.893Z,2.90
2023-01-15T02:31:34.999Z,2.90
2023-01-15T02:34:28.752Z,2.90
2023-01-15T02:37:10.463Z,2.90
2023-01-15T02:39:41.212Z,2.80
2023-01-15T02:42:11.350Z,2.80
2023-01-15T02:44:46.114Z,2.80
2023-01-15T02:47:15.576Z,2.80
2023-01-15T02:49:44.599Z,2.70
2023-01-15T02:52:22.512Z,2.70
2023-01-15T02:54:56.757Z,2.70
2023-01-15T02:57:28.701Z,2.70
2023-01-15T02:59:58.808Z,2.80
2023-01-15T03:02:32.877Z,2.70
2023-01-15T03:05:08.330Z,2.70
2023-01-15T03:07:53.169Z,2.80
2023-01-15T03:10:28.151Z,2.70
2023-01-15T03:13:03.156Z,2.80
2023-01-15T03:16:22.268Z,2.80
2023-01-15T03:19:07.207Z,2.70
2023-01-15T03:21:48.113Z,2.70
2023-01-15T03:24:33.410Z,2.70
2023-01-15T03:27:01.759Z,2.70
2023-01-15T03:29:33.831Z,2.60
2023-01-15T03:32:01.351Z,2.60
2023-01-15T03:34:38.243Z,2.60
2023-01-15T03:37:05.772Z,2.50
2023-01-15T03:39:36.469Z,2.50
2023-01-15T03:42:09.790Z,2.50
2023-01-15T03:44:51.476Z,2.50
2023-01-15T03:47:30.695Z,2.50
2023-01-15T03:50:11.804Z,2.40
2023-01-15T03:53:03.961Z,2.40
2023-01-15T03:55:57.582Z,2.40
2023-01-15T03:58:29.693Z,2.40
2023-01-15T04:01:00.547Z,2.40
2023-01-15T04:03:30.528Z,2.50
2023-01-15T04:06:01.430Z,2.40
2023-01-15T04:08:32.200Z,2.40
2023-01-15T04:11:01.759Z,2.40
2023-01-15T04:13:31.248Z,2.40
2023-01-15T04:15:59.344Z,2.40
2023-01-15T04:18:26.922Z,2.40
2023-01-15T04:20:56.891Z,2.40
2023-01-15T04:23:24.481Z,2.50
2023-01-15T04:25:51.619Z,2.40
2023-01-15T04:28:18.817Z,2.40
2023-01-15T04:30:46.595Z,2.40
2023-01-15T04:33:13.887Z,2.40
2023-01-15T04:35:41.048Z,2.40
2023-01-15T04:38:08.278Z,2.40
2023-01-15T04:40:54.136Z,2.40
2023-01-15T04:43:39.819Z,2.40
2023-01-15T04:46:07.139Z,2.40
2023-01-15T04:48:34.558Z,2.30
2023-01-15T04:51:06.587Z,2.40
2023-01-15T04:53:34.321Z,2.40
2023-01-15T04:56:02.477Z,2.40
2023-01-15T04:58:29.895Z,2.40
2023-01-15T05:00:57.973Z,2.40
2023-01-15T05:03:25.089Z,2.50
2023-01-15T05:05:52.292Z,2.50
2023-01-15T05:08:19.424Z,2.50
2023-01-15T05:10:46.655Z,2.50
2023-01-15T05:13:14.035Z,2.60
2023-01-15T05:15:42.821Z,2.60
2023-01-15T05:18:09.953Z,2.60
2023-01-15T05:20:38.169Z,2.60
2023-01-15T05:23:05.298Z,2.60
2023-01-15T05:25:32.657Z,2.70
2023-01-15T05:27:59.825Z,2.70
2023-01-15T05:30:26.973Z,2.80
2023-01-15T05:32:54.397Z,2.80
2023-01-15T05:35:21.613Z,2.90
2023-01-15T05:37:48.901Z,2.90
2023-01-15T05:40:16.156Z,2.90
2023-01-15T05:42:43.360Z,3.00
2023-01-15T05:45:10.764Z,3.10
2023-01-15T05:47:37.873Z,3.10
2023-01-15T05:50:05.746Z,3.10
2023-01-15T05:52:32.854Z,3.10
2023-01-15T05:54:59.969Z,3.20
2023-01-15T05:57:27.153Z,3.20
2023-01-15T05:59:55.533Z,3.20
2023-01-15T06:02:24.779Z,3.30
2023-01-15T06:04:52.064Z,3.30
2023-01-15T06:07:19.210Z,3.40
2023-01-15T06:09:46.399Z,3.40
2023-01-15T06:12:13.549Z,3.40
2023-01-15T06:14:40.671Z,3.40
2023-01-15T06:17:07.749Z,3.40
2023-01-15T06:19:34.891Z,3.50
2023-01-15T06:22:03.824Z,3.50
2023-01-15T06:24:31.086Z,3.50
2023-01-15T06:26:58.253Z,3.60
2023-01-15T06:29:25.414Z,3.60
2023-01-15T06:31:52.632Z,3.60
2023-01-15T06:34:19.854Z,3.60
2023-01-15T06:36:47.049Z,3.60
2023-01-15T06:39:14.296Z,3.60
2023-01-15T06:41:59.893Z,3.60
2023-01-15T06:44:45.689Z,3.60
2023-01-15T06:47:22.273Z,3.50
2023-01-15T06:49:59.618Z,3.50
2023-01-15T06:52:29.580Z,3.50
2023-01-15T06:54:57.124Z,3.50
2023-01-15T06:57:24.458Z,3.50
2023-01-15T06:59:52.058Z,3.50
2023-01-15T07:02:19.877Z,3.50
2023-01-15T07:04:51.057Z,3.50
2023-01-15T07:07:19.946Z,3.50
2023-01-15T07:09:47.138Z,3.50
2023-01-15T07:12:14.777Z,3.50
2023-01-15T07:14:41.995Z,3.40
2023-01-15T07:17:09.639Z,3.40
2023-01-15T07:19:37.575Z,3.50
2023-01-15T07:22:05.697Z,3.40
2023-01-15T07:24:35.694Z,3.50
2023-01-15T07:27:03.241Z,3.50
2023-01-15T07:29:31.564Z,3.60
2023-01-15T07:31:59.268Z,3.60
2023-01-15T07:34:26.772Z,3.60
2023-01-15T07:36:54.103Z,3.60
2023-01-15T07:39:21.291Z,3.60
2023-01-15T07:42:06.863Z,3.60
2023-01-15T07:44:53.038Z,3.60
2023-01-15T07:47:43.703Z,3.60
2023-01-15T07:50:14.252Z,3.50
2023-01-15T07:52:41.581Z,3.50
2023-01-15T07:55:10.337Z,3.50
2023-01-15T07:57:38.098Z,3.50
2023-01-15T08:00:08.713Z,3.50
2023-01-15T08:02:35.954Z,3.50
2023-01-15T08:05:03.180Z,3.40
2023-01-15T08:07:30.544Z,3.40
2023-01-15T08:09:57.778Z,3.40
2023-01-15T08:12:43.378Z,3.50
2023-01-15T08:15:13.605Z,3.40
2023-01-15T08:17:43.319Z,3.40
2023-01-15T08:20:16.729Z,3.30
2023-01-15T08:22:44.621Z,3.20
2023-01-15T08:25:18.005Z,3.20
2023-01-15T08:27:45.891Z,3.10
2023-01-15T08:30:16.877Z,3.00
2023-01-15T08:32:44.270Z,2.90
2023-01-15T08:35:15.836Z,2.80
2023-01-15T08:37:43.398Z,2.80
2023-01-15T08:40:12.638Z,2.70
2023-01-15T08:42:40.746Z,2.60
2023-01-15T08:45:08.596Z,2.60
2023-01-15T08:47:37.441Z,2.60
2023-01-15T08:50:09.792Z,2.50
2023-01-15T08:52:38.466Z,2.50
2023-01-15T08:55:06.769Z,2.40
2023-01-15T08:57:34.171Z,2.40
2023-01-15T09:00:01.710Z,2.50
2023-01-15T09:02:30.001Z,2.50
2023-01-15T09:04:57.406Z,2.50
2023-01-15T09:07:25.264Z,2.60
2023-01-15T09:09:52.510Z,2.60
2023-01-15T09:12:19.783Z,2.60
2023-01-15T09:14:56.866Z,2.60
2023-01-15T09:17:28.966Z,2.60
2023-01-15T09:19:56.212Z,2.60
2023-01-15T09:22:23.595Z,2.60
2023-01-15T09:24:51.011Z,2.50
2023-01-15T09:27:18.255Z,2.60
2023-01-15T09:29:45.521Z,2.70
2023-01-15T09:32:12.919Z,2.70
2023-01-15T09:34:40.065Z,2.80
2023-01-15T09:37:07.634Z,2.90
2023-01-15T09:39:34.998Z,2.90
2023-01-15T09:42:43.877Z,3.00
2023-01-15T09:45:26.119Z,3.10
2023-01-15T09:48:02.731Z,3.10
2023-01-15T09:50:46.136Z,3.10
2023-01-15T09:53:31.378Z,3.10
2023-01-15T09:56:01.758Z,3.20
2023-01-15T09:58:39.554Z,3.30
2023-01-15T10:01:11.595Z,3.20
2023-01-15T10:03:52.819Z,3.20
2023-01-15T10:06:35.905Z,3.30
2023-01-15T10:09:18.375Z,3.30
2023-01-15T10:12:35.756Z,3.40
2023-01-15T10:15:27.941Z,3.50
2023-01-15T10:17:59.395Z,3.40
2023-01-15T10:20:41.665Z,3.50
2023-01-15T10:23:47.774Z,3.50
2023-01-15T10:26:19.508Z,3.50
2023-01-15T10:29:12.449Z,3.40
2023-01-15T10:32:01.398Z,3.30
2023-01-15T10:34:41.126Z,3.30
2023-01-15T10:37:42.235Z,3.20
2023-01-15T10:40:55.274Z,3.20
2023-01-15T10:43:47.112Z,3.40
2023-01-15T10:46:18.474Z,3.40
2023-01-15T10:48:51.816Z,3.60
2023-01-15T10:51:26.890Z,3.60
2023-01-15T10:54:02.122Z,3.70
2023-01-15T10:56:35.291Z,3.70
2023-01-15T10:59:31.188Z,3.70
2023-01-15T11:02:00.209Z,3.70
2023-01-15T11:04:32.077Z,3.70
2023-01-15T11:07:01.301Z,3.70
2023-01-15T11:09:32.507Z,3.70
2023-01-15T11:12:48.159Z,3.70
2023-01-15T11:15:41.430Z,3.60
2023-01-15T11:18:42.418Z,3.60
2023-01-15T11:21:15.622Z,3.50
2023-01-15T11:23:43.088Z,3.50
2023-01-15T11:26:17.542Z,3.50
2023-01-15T11:28:46.690Z,3.40
2023-01-15T11:31:15.659Z,3.40
2023-01-15T11:34:01.149Z,3.30
2023-01-15T11:36:30.030Z,3.20
2023-01-15T11:38:57.540Z,3.20
2023-01-15T11:41:50.651Z,3.20
2023-01-15T11:44:38.847Z,3.20
2023-01-15T11:47:32.421Z,3.20
2023-01-15T11:50:18.172Z,3.20
2023-01-15T11:52:55.800Z,3.20
2023-01-15T11:55:27.147Z,3.20
2023-01-15T11:57:55.915Z,3.20
2023-01-15T12:00:29.820Z,3.20
2023-01-15T12:03:04.951Z,3.30
2023-01-15T12:05:35.785Z,3.40
2023-01-15T12:08:28.805Z,3.40
2023-01-15T12:11:26.629Z,3.50
2023-01-15T12:13:57.409Z,3.50
2023-01-15T12:16:30.172Z,3.50
2023-01-15T12:19:32.843Z,3.60
2023-01-15T12:22:44.012Z,3.60
2023-01-15T12:25:34.105Z,3.50
2023-01-15T12:28:12.254Z,3.50
2023-01-15T12:31:03.700Z,3.60
2023-01-15T12:33:42.934Z,3.60
2023-01-15T12:36:21.855Z,3.60
2023-01-15T12:39:01.815Z,3.70
2023-01-15T12:42:04.205Z,3.70
2023-01-15T12:45:08.495Z,3.80
2023-01-15T12:48:16.858Z,3.80
2023-01-15T12:50:54.345Z,3.90
2023-01-15T12:53:24.185Z,3.90
2023-01-15T12:55:57.515Z,3.80
2023-01-15T12:58:52.161Z,3.80
2023-01-15T13:01:56.908Z,3.80
2023-01-15T13:04:43.137Z,3.80
2023-01-15T13:07:22.051Z,3.70
2023-01-15T13:10:36.997Z,3.70
2023-01-15T13:13:19.242Z,3.60
2023-01-15T13:15:59.695Z,3.50
2023-01-15T13:19:04.620Z,3.50
2023-01-15T13:21:35.969Z,3.40
2023-01-15T13:24:23.122Z,3.40
2023-01-15T13:27:25.332Z,3.40
2023-01-15T13:30:03.496Z,3.50
2023-01-15T13:32:35.133Z,3.60
2023-01-15T13:35:11.189Z,3.60
2023-01-15T13:37:48.781Z,3.60
2023-01-15T13:40:28.880Z,3.60
2023-01-15T13:42:56.967Z,3.60
2023-01-15T13:45:33.854Z,3.50
2023-01-15T13:48:15.186Z,3.40
2023-01-15T13:50:52.071Z,3.40
2023-01-15T13:53:33.155Z,3.30
2023-01-15T13:56:06.201Z,3.30
2023-01-15T13:58:38.055Z,3.30
2023-01-15T14:01:30.910Z,3.30
2023-01-15T14:04:10.054Z,3.30
2023-01-15T14:06:49.563Z,3.30
2023-01-15T14:09:25.304Z,3.20
2023-01-15T14:12:01.548Z,3.20
2023-01-15T14:14:47.384Z,3.30
2023-01-15T14:17:23.505Z,3.30
2023-01-15T14:20:09.724Z,3.30
2023-01-15T14:22:58.940Z,3.30
2023-01-15T14:25:59.886Z,3.40
2023-01-15T14:28:32.851Z,3.50
2023-01-15T14:31:08.892Z,3.50
2023-01-15T14:33:54.000Z,3.50
2023-01-15T14:36:30.757Z,3.50
2023-01-15T14:39:03.075Z,3.50
2023-01-15T14:41:56.483Z,3.40
2023-01-15T14:44:32.364Z,3.40
2023-01-15T14:47:06.826Z,3.40
2023-01-15T14:49:49.920Z,3.40
2023-01-15T14:52:23.654Z,3.30
2023-01-15T14:54:52.522Z,3.40
2023-01-15T14:57:23.764Z,3.40
2023-01-15T15:00:04.240Z,3.40
2023-01-15T15:02:42.164Z,3.40
2023-01-15T15:05:18.616Z,3.50
2023-01-15T15:07:53.056Z,3.50
2023-01-15T15:10:38.108Z,3.50
2023-01-15T15:13:29.466Z,3.50
2023-01-15T15:16:22.908Z,3.40
2023-01-15T15:19:11.937Z,3.40
2023-01-15T15:21:43.497Z,3.40
2023-01-15T15:24:30.293Z,3.30
2023-01-15T15:26:57.519Z,3.20
2023-01-15T15:29:24.850Z,3.10
2023-01-15T15:32:00.241Z,3.10
2023-01-15T15:34:40.520Z,3.10
2023-01-15T15:37:20.024Z,3.20
2023-01-15T15:40:15.265Z,3.10
2023-01-15T15:43:13.816Z,3.10
2023-01-15T15:46:10.516Z,3.00
2023-01-15T15:48:45.341Z,2.90
2023-01-15T15:51:42.964Z,2.90
2023-01-15T15:54:16.813Z,2.90
2023-01-15T15:57:02.451Z,2.80
2023-01-15T15:59:35.777Z,2.80
2023-01-15T16:02:38.297Z,2.70
2023-01-15T16:05:31.096Z,2.70
2023-01-15T16:08:16.276Z,2.70
2023-01-15T16:10:46.348Z,2.60
2023-01-15T16:13:28.891Z,2.60
2023-01-15T16:15:58.386Z,2.60
2023-01-15T16:18:41.188Z,2.50
2023-01-15T16:21:09.730Z,2.50
2023-01-15T16:23:36.950Z,2.40
2023-01-15T16:26:07.390Z,2.40
2023-01-15T16:28:45.625Z,2.30
2023-01-15T16:31:15.405Z,2.40
2023-01-15T16:33:42.978Z,2.40
2023-01-15T16:36:10.495Z,2.30
2023-01-15T16:38:41.527Z,2.30
2023-01-15T16:41:39.060Z,2.30
2023-01-15T16:44:07.739Z,2.30
2023-01-15T16:46:54.758Z,2.30
2023-01-15T16:49:33.241Z,2.40
2023-01-15T16:52:02.582Z,2.50
2023-01-15T16:54:29.748Z,2.50
2023-01-15T16:57:05.830Z,2.50
2023-01-15T16:59:33.446Z,2.60
2023-01-15T17:02:17.431Z,2.50
2023-01-15T17:04:46.300Z,2.50
2023-01-15T17:07:35.295Z,2.40
2023-01-15T17:10:05.078Z,2.30
2023-01-15T17:12:43.855Z,2.30
2023-01-15T17:15:17.664Z,2.20
2023-01-15T17:17:49.072Z,2.20
2023-01-15T17:20:18.195Z,2.20
2023-01-15T17:22:48.046Z,2.20
2023-01-15T17:25:28.430Z,2.20
2023-01-15T17:27:56.099Z,2.30
2023-01-15T17:30:42.240Z,2.40
2023-01-15T17:33:12.606Z,2.40
2023-01-15T17:35:43.372Z,2.40
2023-01-15T17:38:12.173Z,2.40
2023-01-15T17:40:40.553Z,2.40
2023-01-15T17:43:10.218Z,2.50
2023-01-15T17:45:38.281Z,2.50
2023-01-15T17:48:09.086Z,2.40
2023-01-15T17:50:37.746Z,2.30
2023-01-15T17:53:06.174Z,2.30
2023-01-15T17:55:51.993Z,2.30
2023-01-15T17:58:37.850Z,2.20
2023-01-15T18:01:33.670Z,2.10
2023-01-15T18:04:19.728Z,2.00
2023-01-15T18:06:51.231Z,2.00
2023-01-15T18:09:21.257Z,2.00
2023-01-15T18:11:48.594Z,1.90
2023-01-15T18:14:15.808Z,1.90
2023-01-15T18:16:42.972Z,2.00
2023-01-15T18:19:10.384Z,1.90
2023-01-15T18:21:41.104Z,2.00
2023-01-15T18:24:10.461Z,2.00
2023-01-15T18:26:41.694Z,1.90
2023-01-15T18:29:10.181Z,1.90
2023-01-15T18:31:38.242Z,1.90
2023-01-15T18:34:05.998Z,1.80
2023-01-15T18:36:33.511Z,1.80
2023-01-15T18:39:06.388Z,1.80
2023-01-15T18:41:35.706Z,1.80
2023-01-15T18:44:28.566Z,1.80
2023-01-15T18:47:12.356Z,1.70
2023-01-15T18:49:41.192Z,1.80
2023-01-15T18:52:28.331Z,1.90
2023-01-15T18:54:56.161Z,1.90
2023-01-15T18:57:24.237Z,1.90
2023-01-15T18:59:52.212Z,1.90
2023-01-15T19:02:21.516Z,1.80
2023-01-15T19:04:49.164Z,1.90
2023-01-15T19:07:16.949Z,1.80
2023-01-15T19:09:44.151Z,1.80
2023-01-15T19:12:11.621Z,1.80
2023-01-15T19:14:57.302Z,1.80
2023-01-15T19:17:44.595Z,1.80
2023-01-15T19:20:17.577Z,1.80
2023-01-15T19:22:59.930Z,1.90
2023-01-15T19:25:32.768Z,1.80
2023-01-15T19:27:59.943Z,1.90
2023-01-15T19:30:28.424Z,1.90
2023-01-15T19:32:56.815Z,2.00
2023-01-15T19:35:24.465Z,1.90
2023-01-15T19:37:53.444Z,1.90
2023-01-15T19:40:21.304Z,1.90
2023-01-15T19:43:10.331Z,1.90
2023-01-15T19:46:03.909Z,1.90
2023-01-15T19:48:52.325Z,2.00
2023-01-15T19:51:21.203Z,2.00
2023-01-15T19:53:48.443Z,1.90
2023-01-15T19:56:15.578Z,1.90
2023-01-15T19:58:42.895Z,1.90
2023-01-15T20:01:17.674Z,1.90
2023-01-15T20:03:46.389Z,2.00
2023-01-15T20:06:13.686Z,2.00
2023-01-15T20:08:40.830Z,2.00
2023-01-15T20:11:09.935Z,2.10
2023-01-15T20:13:52.315Z,2.10
2023-01-15T20:16:22.763Z,2.10
2023-01-15T20:18:51.340Z,2.20
2023-01-15T20:21:19.408Z,2.10
2023-01-15T20:23:46.790Z,2.10
2023-01-15T20:26:16.676Z,2.10
2023-01-15T20:28:47.278Z,2.10
2023-01-15T20:31:17.578Z,2.10
2023-01-15T20:33:45.771Z,2.10
2023-01-15T20:36:13.565Z,2.10
2023-01-15T20:38:40.797Z,2.30
2023-01-15T20:41:28.698Z,2.30
2023-01-15T20:44:17.636Z,2.40
2023-01-15T20:46:45.359Z,2.50
2023-01-15T20:49:25.432Z,2.60
2023-01-15T20:51:53.661Z,2.60
2023-01-15T20:54:22.867Z,2.70
2023-01-15T20:56:50.622Z,2.80
2023-01-15T20:59:18.340Z,2.80
2023-01-15T21:01:45.904Z,2.90
2023-01-15T21:04:14.116Z,2.90
2023-01-15T21:06:41.518Z,2.80
2023-01-15T21:09:09.097Z,2.90
2023-01-15T21:11:36.518Z,2.80
2023-01-15T21:14:04.140Z,2.80
2023-01-15T21:16:31.411Z,2.80
2023-01-15T21:19:01.272Z,2.80
2023-01-15T21:21:28.562Z,2.80
2023-01-15T21:23:56.189Z,2.80
2023-01-15T21:26:26.355Z,2.80
2023-01-15T21:28:55.846Z,2.80
2023-01-15T21:31:23.510Z,2.80
2023-01-15T21:33:54.426Z,2.80
2023-01-15T21:36:23.049Z,2.80
2023-01-15T21:38:54.788Z,2.80
2023-01-15T21:41:46.519Z,2.80
2023-01-15T21:44:32.246Z,2.90
2023-01-15T21:47:07.303Z,2.90
2023-01-15T21:49:35.190Z,2.80
2023-01-15T21:52:05.465Z,2.80
2023-01-15T21:54:33.094Z,2.80
2023-01-15T21:57:00.640Z,2.80
2023-01-15T21:59:28.345Z,2.80
2023-01-15T22:01:57.492Z,2.70
2023-01-15T22:04:26.238Z,2.80
2023-01-15T22:06:54.572Z,2.80
2023-01-15T22:09:22.664Z,2.80
2023-01-15T22:11:50.257Z,2.80
2023-01-15T22:14:33.995Z,2.80
2023-01-15T22:17:03.649Z,2.80
2023-01-15T22:19:32.850Z,2.70
2023-01-15T22:22:08.469Z,2.70
2023-01-15T22:24:37.829Z,2.70
2023-01-15T22:27:06.868Z,2.70
2023-01-15T22:29:39.102Z,2.70
2023-01-15T22:32:07.903Z,2.80
2023-01-15T22:34:35.544Z,2.80
2023-01-15T22:37:03.122Z,2.90
2023-01-15T22:39:30.893Z,2.90
2023-01-15T22:42:16.393Z,2.80
2023-01-15T22:44:45.191Z,2.90
2023-01-15T22:47:15.456Z,2.90
2023-01-15T22:49:42.558Z,2.90
2023-01-15T22:52:09.790Z,2.90
2023-01-15T22:54:37.098Z,2.90
2023-01-15T22:57:05.289Z,2.80
2023-01-15T22:59:32.458Z,2.90
2023-01-15T23:01:59.643Z,2.90
2023-01-15T23:04:27.130Z,3.00
2023-01-15T23:06:54.470Z,3.00
2023-01-15T23:09:23.144Z,3.00
2023-01-15T23:11:51.799Z,3.00
2023-01-15T23:14:21.339Z,3.10
2023-01-15T23:16:49.105Z,3.00
2023-01-15T23:19:17.283Z,3.00
2023-01-15T23:21:44.567Z,3.10
2023-01-15T23:24:12.479Z,3.10
2023-01-15T23:26:40.094Z,3.00
2023-01-15T23:29:07.798Z,3.00
2023-01-15T23:31:35.392Z,3.00
2023-01-15T23:34:02.718Z,3.00
2023-01-15T23:36:30.006Z,3.00
2023-01-15T23:38:57.164Z,3.00
2023-01-15T23:41:57.998Z,3.00
2023-01-15T23:44:43.922Z,2.90
2023-01-15T23:47:11.135Z,2.90
2023-01-15T23:49:38.515Z,3.00
2023-01-15T23:52:06.017Z,2.90
2023-01-15T23:54:33.368Z,2.90
2023-01-15T23:57:02.471Z,2.90
2023-01-15T23:59:30.081Z,3.00
